Time;durP1;ratioP1;P1;durP2;ratioP2;P2;SDS_P1;SDS_P2;PMS_P1;PMS_P2;Temp;Humidity;BMP_temperature;BMP_pressure;BME280_temperature;BME280_humidity;BME280_pressure;Samples;Min_cycle;Max_cycle;Signal;HPM_P1;HPM_P2
2021/05/23 00:00:43;;;;;;;;;;;;;;;20.72;51.84;100404.13;2103447;28;3906;-27
2021/05/23 00:01:44;;;;;;;;;;;;;;;20.72;52.01;100404.13;2103144;28;4142;-27
2021/05/23 00:02:46;;;;;;;;;;;;;;;20.72;52.08;100403.31;2105119;28;3899;-30
2021/05/23 00:03:47;;;;;;;;;;;;;;;20.72;51.99;100406.97;2105267;28;3872;-33
2021/05/23 00:04:48;;;;;;;;;;;;;;;20.73;52.13;100408.66;2104954;28;4054;-29
2021/05/23 00:05:49;;;;;;;;;;;;;;;20.73;52.02;100411.50;2103600;28;4024;-27
2021/05/23 00:06:50;;;;;;;;;;;;;;;20.73;52.07;100402.97;2105257;28;4054;-31
2021/05/23 00:07:52;;;;;;;;;;;;;;;20.74;51.97;100407.47;2104063;28;4187;-28
2021/05/23 00:08:53;;;;;;;;;;;;;;;20.74;52.19;100410.28;2103823;28;4052;-38
2021/05/23 00:09:55;;;;;;;;;;;;;;;20.75;52.19;100413.97;2102932;28;4023;-29
2021/05/23 00:10:59;;;;;;;;;;;;;;;20.75;52.21;100413.97;2104448;28;3891;-28
2021/05/23 00:12:00;;;;;;;;;;;;;;;20.75;52.28;100417.63;2103810;28;3877;-28
2021/05/23 00:13:01;;;;;;;;;;;;;;;20.76;52.18;100421.28;2103513;28;4102;-28
2021/05/23 00:14:03;;;;;;;;;;;;;;;20.75;52.14;100420.47;2103967;28;3869;-29
2021/05/23 00:15:04;;;;;;;;;;;;;;;20.75;52.20;100417.63;2101733;28;4013;-31
2021/05/23 00:16:05;;;;;;;;;;;;;;;20.75;52.40;100411.94;2103021;28;4049;-28
2021/05/23 00:17:06;;;;;;;;;;;;;;;20.77;52.36;100418.09;2104752;28;3898;-30
2021/05/23 00:18:08;;;;;;;;;;;;;;;20.78;52.38;100424.59;2101497;28;3888;-28
2021/05/23 00:19:09;;;;;;;;;;;;;;;20.77;52.44;100415.25;2102595;28;4015;-29
2021/05/23 00:20:10;;;;;;;;;;;;;;;20.77;52.45;100412.41;2104655;28;4034;-31
2021/05/23 00:21:11;;;;;;;;;;;;;;;20.77;52.36;100420.94;2101473;28;4067;-35
2021/05/23 00:22:13;;;;;;;;;;;;;;;20.77;52.41;100418.09;2102178;28;4145;-28
2021/05/23 00:23:14;;;;;;;;;;;;;;;20.77;52.45;100422.97;2104927;28;4210;-27
2021/05/23 00:24:15;;;;;;;;;;;;;;;20.77;52.44;100423.78;2104218;28;4091;-31
2021/05/23 00:25:16;;;;;;;;;;;;;;;20.78;52.51;100419.75;2105212;28;4059;-26
2021/05/23 00:26:18;;;;;;;;;;;;;;;20.79;52.55;100426.28;2104482;28;4019;-32
2021/05/23 00:27:19;;;;;;;;;;;;;;;20.79;52.59;100421.41;2104445;28;4011;-29
2021/05/23 00:28:20;;;;;;;;;;;;;;;20.78;52.60;100422.59;2104963;28;3836;-31
2021/05/23 00:29:21;;;;;;;;;;;;;;;20.79;52.45;100418.56;2104277;28;4298;-32
2021/05/23 00:30:23;;;;;;;;;;;;;;;20.79;52.69;100427.09;2105209;28;4020;-33
2021/05/23 00:31:24;;;;;;;;;;;;;;;20.80;52.69;100425.09;2103862;28;4031;-28
2021/05/23 00:32:25;;;;;;;;;;;;;;;20.79;52.54;100427.09;2102184;28;3936;-31
2021/05/23 00:33:27;;;;;;;;;;;;;;;20.79;52.64;100424.25;2104191;28;4711;-34
2021/05/23 00:34:28;;;;;;;;;;;;;;;20.79;52.71;100424.25;2094697;28;3941;-26
2021/05/23 00:35:29;;;;;;;;;;;;;;;20.80;52.68;100423.06;2103003;28;4039;-36
2021/05/23 00:36:31;;;;;;;;;;;;;;;20.83;52.70;100421.50;2104416;28;4040;-29
2021/05/23 00:37:32;;;;;;;;;;;;;;;20.82;52.79;100423.53;2104922;28;3889;-30
2021/05/23 00:38:33;;;;;;;;;;;;;;;20.82;52.76;100426.38;2104988;28;3879;-32
2021/05/23 00:39:34;;;;;;;;;;;;;;;20.82;52.72;100419.88;2105091;28;4031;-30
2021/05/23 00:40:35;;;;;;;;;;;;;;;20.82;52.75;100420.69;2104994;28;4184;-31
2021/05/23 00:41:37;;;;;;;;;;;;;;;20.83;52.76;100421.50;2104714;28;3930;-27
2021/05/23 00:42:38;;;;;;;;;;;;;;;20.83;52.84;100416.66;2104699;28;4043;-30
2021/05/23 00:43:39;;;;;;;;;;;;;;;20.84;52.82;100418.31;2104361;28;4067;-28
2021/05/23 00:44:40;;;;;;;;;;;;;;;20.84;52.87;100421.16;2102277;28;4006;-31
2021/05/23 00:45:42;;;;;;;;;;;;;;;20.84;52.91;100418.31;2097595;28;4096;-29
2021/05/23 00:46:43;;;;;;;;;;;;;;;20.84;52.94;100420.31;2105502;28;3894;-29
2021/05/23 00:47:44;;;;;;;;;;;;;;;20.84;53.10;100426.00;2104077;28;4010;-29
2021/05/23 00:48:45;;;;;;;;;;;;;;;20.85;52.89;100427.66;2104427;28;4126;-34
2021/05/23 00:49:46;;;;;;;;;;;;;;;20.85;52.87;100421.97;2104758;28;4044;-31
2021/05/23 00:50:48;;;;;;;;;;;;;;;20.85;52.94;100424.81;2105399;28;4032;-30
2021/05/23 00:51:49;;;;;;;;;;;;;;;20.84;53.02;100424.00;2102663;28;4055;-28
2021/05/23 00:52:50;;;;;;;;;;;;;;;20.85;53.00;100424.81;2104509;28;4157;-26
2021/05/23 00:53:51;;;;;;;;;;;;;;;20.86;53.02;100432.16;2104695;28;4022;-34
2021/05/23 00:54:52;;;;;;;;;;;;;;;20.85;53.10;100425.66;2103994;28;3877;-27
2021/05/23 00:55:54;;;;;;;;;;;;;;;20.86;53.11;100429.31;2104690;28;3997;-28
2021/05/23 00:56:55;;;;;;;;;;;;;;;20.87;53.08;100433.81;2105090;28;4395;-27
2021/05/23 00:57:56;;;;;;;;;;;;;;;20.86;53.02;100432.97;2103925;28;4089;-32
2021/05/23 00:58:57;;;;;;;;;;;;;;;20.87;53.13;100434.66;2095570;28;4104;-27
2021/05/23 00:59:59;;;;;;;;;;;;;;;20.87;53.16;100440.34;2096127;28;4051;-30
2021/05/23 01:01:01;;;;;;;;;;;;;;;20.86;53.21;100441.50;2104129;28;3902;-37
2021/05/23 01:02:02;;;;;;;;;;;;;;;20.87;53.14;100451.72;2104825;28;4043;-30
2021/05/23 01:03:03;;;;;;;;;;;;;;;20.88;53.08;100444.00;2102247;28;4157;-28
2021/05/23 01:04:05;;;;;;;;;;;;;;;20.88;53.23;100441.16;2105010;28;4002;-28
2021/05/23 01:05:06;;;;;;;;;;;;;;;20.88;53.34;100447.66;2103360;28;3881;-27
2021/05/23 01:06:07;;;;;;;;;;;;;;;20.87;53.09;100443.19;2104738;28;3842;-28
2021/05/23 01:07:08;;;;;;;;;;;;;;;20.88;53.37;100444.00;2104242;28;3909;-29
2021/05/23 01:08:09;;;;;;;;;;;;;;;20.86;53.14;100449.22;2104423;28;4136;-27
2021/05/23 01:09:11;;;;;;;;;;;;;;;20.83;53.15;100447.91;2103592;28;3830;-36
2021/05/23 01:10:12;;;;;;;;;;;;;;;20.84;53.25;100443.91;2104101;28;4047;-29
2021/05/23 01:11:28;;;;;;;;;;;;;;;20.85;53.23;100454.06;2105335;28;3975;-28
2021/05/23 01:12:29;;;;;;;;;;;;;;;20.84;53.09;100449.59;2105145;28;4249;-28
2021/05/23 01:13:31;;;;;;;;;;;;;;;20.84;53.10;100449.59;2103675;28;4073;-28
2021/05/23 01:14:32;;;;;;;;;;;;;;;20.84;53.16;100449.59;2105129;28;3868;-28
2021/05/23 01:15:33;;;;;;;;;;;;;;;20.85;53.05;100447.56;2103434;28;3870;-30
2021/05/23 01:16:34;;;;;;;;;;;;;;;20.85;53.18;100439.88;2105913;28;3964;-34
2021/05/23 01:17:38;;;;;;;;;;;;;;;20.85;53.20;100448.41;2105891;28;4062;-30
2021/05/23 01:18:39;;;;;;;;;;;;;;;20.85;53.05;100441.88;2105584;28;3898;-32
2021/05/23 01:19:40;;;;;;;;;;;;;;;20.85;53.03;100445.56;2104615;28;3901;-28
2021/05/23 01:20:42;;;;;;;;;;;;;;;20.85;53.00;100447.56;2106799;28;4091;-28
2021/05/23 01:21:43;;;;;;;;;;;;;;;20.85;53.03;100448.41;2105427;28;3943;-29
2021/05/23 01:22:44;;;;;;;;;;;;;;;20.84;53.11;100452.44;2104715;28;3882;-27
2021/05/23 01:23:45;;;;;;;;;;;;;;;20.85;53.11;100454.06;2105738;28;4024;-34
2021/05/23 01:24:47;;;;;;;;;;;;;;;20.85;52.99;100456.91;2106652;28;3916;-32
2021/05/23 01:25:48;;;;;;;;;;;;;;;20.86;53.11;100454.91;2105857;28;3842;-28
2021/05/23 01:26:53;;;;;;;;;;;;;;;20.86;53.08;100452.06;2102729;28;3927;-35
2021/05/23 01:27:54;;;;;;;;;;;;;;;20.85;53.00;100461.78;2104155;28;4027;-28
2021/05/23 01:28:56;;;;;;;;;;;;;;;20.85;53.04;100454.06;2104260;28;3887;-30
2021/05/23 01:29:57;;;;;;;;;;;;;;;20.85;53.05;100454.06;2104525;28;4017;-30
2021/05/23 01:30:58;;;;;;;;;;;;;;;20.85;53.00;100453.25;2103733;28;3915;-30
2021/05/23 01:32:00;;;;;;;;;;;;;;;20.86;53.08;100457.75;2103998;28;4069;-28
2021/05/23 01:33:01;;;;;;;;;;;;;;;20.85;52.88;100453.25;2106070;28;4149;-37
2021/05/23 01:34:02;;;;;;;;;;;;;;;20.85;53.01;100450.41;2106305;28;3985;-27
2021/05/23 01:35:03;;;;;;;;;;;;;;;20.85;53.01;100447.56;2104730;28;3853;-32
2021/05/23 01:36:05;;;;;;;;;;;;;;;20.85;53.01;100454.06;2105283;28;4099;-28
2021/05/23 01:37:06;;;;;;;;;;;;;;;20.85;52.99;100454.06;2106546;28;5012;-28
2021/05/23 01:38:07;;;;;;;;;;;;;;;20.85;52.97;100448.41;2105965;28;4191;-30
2021/05/23 01:39:08;;;;;;;;;;;;;;;20.85;52.97;100445.56;2106120;28;4032;-30
2021/05/23 01:40:09;;;;;;;;;;;;;;;20.85;52.83;100453.25;2105980;28;3874;-26
2021/05/23 01:41:11;;;;;;;;;;;;;;;20.85;52.81;100451.25;2106316;28;3996;-30
2021/05/23 01:42:12;;;;;;;;;;;;;;;20.85;52.91;100459.78;2105604;28;4027;-30
2021/05/23 01:43:13;;;;;;;;;;;;;;;20.85;52.82;100456.91;2107091;28;4003;-31
2021/05/23 01:44:14;;;;;;;;;;;;;;;20.85;52.91;100456.91;2105317;28;4004;-37
2021/05/23 01:45:16;;;;;;;;;;;;;;;20.86;52.82;100455.72;2105471;28;4040;-28
2021/05/23 01:46:17;;;;;;;;;;;;;;;20.86;52.78;100457.75;2105846;28;3906;-29
2021/05/23 01:47:18;;;;;;;;;;;;;;;20.86;52.84;100455.72;2098979;28;3940;-27
2021/05/23 01:48:19;;;;;;;;;;;;;;;20.85;52.78;100459.78;2104449;28;3846;-34
2021/05/23 01:49:20;;;;;;;;;;;;;;;20.86;52.71;100461.41;2105852;28;4030;-30
2021/05/23 01:50:23;;;;;;;;;;;;;;;20.86;52.75;100460.59;2105467;28;3914;-28
2021/05/23 01:51:25;;;;;;;;;;;;;;;20.85;52.76;100456.91;2105696;28;3834;-27
2021/05/23 01:52:26;;;;;;;;;;;;;;;20.86;52.68;100466.28;2106383;28;3801;-31
2021/05/23 01:53:27;;;;;;;;;;;;;;;20.86;52.70;100467.09;2105024;28;4908;-39
2021/05/23 01:54:28;;;;;;;;;;;;;;;20.86;52.76;100466.28;2106389;28;4959;-28
2021/05/23 01:55:29;;;;;;;;;;;;;;;20.85;52.82;100465.44;2106389;28;3909;-29
2021/05/23 01:56:31;;;;;;;;;;;;;;;20.86;52.83;100475.63;2105365;28;4070;-29
2021/05/23 01:57:32;;;;;;;;;;;;;;;20.86;52.68;100469.13;2107067;28;3863;-31
2021/05/23 01:58:33;;;;;;;;;;;;;;;20.86;52.66;100469.13;2105108;28;4070;-28
2021/05/23 01:59:35;;;;;;;;;;;;;;;20.85;52.71;100465.44;2104548;28;3881;-29
2021/05/23 02:00:36;;;;;;;;;;;;;;;20.85;52.76;100468.28;2106026;28;3919;-31
2021/05/23 02:01:37;;;;;;;;;;;;;;;20.86;52.79;100467.09;2106908;28;4047;-28
2021/05/23 02:02:38;;;;;;;;;;;;;;;20.86;52.71;100467.09;2105131;28;4011;-28
2021/05/23 02:03:40;;;;;;;;;;;;;;;20.86;52.56;100454.91;2105185;28;4094;-31
2021/05/23 02:04:41;;;;;;;;;;;;;;;20.86;52.70;100461.41;2106892;28;3859;-28
2021/05/23 02:05:42;;;;;;;;;;;;;;;20.86;52.76;100458.56;2105093;28;4000;-29
2021/05/23 02:06:43;;;;;;;;;;;;;;;20.86;52.72;100461.41;2105970;28;3911;-27
2021/05/23 02:07:44;;;;;;;;;;;;;;;20.87;52.54;100457.41;2105816;28;4100;-28
2021/05/23 02:08:46;;;;;;;;;;;;;;;20.86;52.58;100454.91;2105555;28;4083;-28
2021/05/23 02:09:47;;;;;;;;;;;;;;;20.86;52.70;100461.41;2104805;28;4142;-32
2021/05/23 02:10:48;;;;;;;;;;;;;;;20.86;52.59;100461.41;2106100;28;3876;-31
2021/05/23 02:11:55;;;;;;;;;;;;;;;20.86;52.54;100463.44;2105740;28;3852;-29
2021/05/23 02:12:57;;;;;;;;;;;;;;;20.86;52.56;100469.13;2105623;28;4125;-29
2021/05/23 02:13:59;;;;;;;;;;;;;;;20.87;52.62;100462.25;2103818;28;4109;-31
2021/05/23 02:15:00;;;;;;;;;;;;;;;20.86;52.52;100461.41;2105958;28;4035;-28
2021/05/23 02:16:01;;;;;;;;;;;;;;;20.86;52.53;100461.41;2104656;28;3883;-28
2021/05/23 02:17:03;;;;;;;;;;;;;;;20.86;52.63;100461.41;2105744;28;4098;-29
2021/05/23 02:18:04;;;;;;;;;;;;;;;20.87;52.63;100462.25;2104584;28;3839;-27
2021/05/23 02:19:05;;;;;;;;;;;;;;;20.86;52.50;100460.59;2105388;28;3891;-28
2021/05/23 02:20:06;;;;;;;;;;;;;;;20.86;52.60;100461.41;2105265;28;4032;-30
2021/05/23 02:21:07;;;;;;;;;;;;;;;20.85;52.63;100456.91;2104441;28;4188;-28
2021/05/23 02:22:09;;;;;;;;;;;;;;;20.86;52.65;100458.56;2106401;28;4049;-30
2021/05/23 02:23:10;;;;;;;;;;;;;;;20.86;52.58;100461.41;2105747;28;4030;-28
2021/05/23 02:24:11;;;;;;;;;;;;;;;20.86;52.45;100455.72;2104447;28;3861;-29
2021/05/23 02:25:12;;;;;;;;;;;;;;;20.86;52.58;100458.56;2106081;28;4035;-27
2021/05/23 02:26:14;;;;;;;;;;;;;;;20.86;52.47;100469.13;2104982;28;3980;-29
2021/05/23 02:27:15;;;;;;;;;;;;;;;20.86;52.62;100466.28;2104715;28;4150;-28
2021/05/23 02:28:16;;;;;;;;;;;;;;;20.86;52.55;100455.72;2104398;28;4065;-31
2021/05/23 02:29:17;;;;;;;;;;;;;;;20.86;52.48;100467.09;2105679;28;3856;-28
2021/05/23 02:30:18;;;;;;;;;;;;;;;20.86;52.53;100460.59;2105039;28;4003;-34
2021/05/23 02:31:20;;;;;;;;;;;;;;;20.85;52.55;100464.63;2105002;28;4176;-28
2021/05/23 02:32:21;;;;;;;;;;;;;;;20.86;52.54;100472.78;2106246;28;3984;-28
2021/05/23 02:33:22;;;;;;;;;;;;;;;20.86;52.44;100469.94;2104755;28;3993;-28
2021/05/23 02:34:23;;;;;;;;;;;;;;;20.86;52.28;100467.09;2105542;28;3993;-31
2021/05/23 02:35:24;;;;;;;;;;;;;;;20.86;52.56;100471.97;2106168;28;3985;-28
2021/05/23 02:36:26;;;;;;;;;;;;;;;20.85;52.43;100473.97;2103585;28;3832;-29
2021/05/23 02:37:26;;;;;;;;;;;;;;;20.86;52.53;100467.09;2098318;28;3967;-29
2021/05/23 02:38:27;;;;;;;;;;;;;;;20.87;52.40;100467.94;2104975;28;4792;-35
2021/05/23 02:39:29;;;;;;;;;;;;;;;20.86;52.48;100467.09;2103741;28;3985;-29
2021/05/23 02:40:30;;;;;;;;;;;;;;;20.85;52.36;100473.97;2106476;28;4188;-29
2021/05/23 02:41:31;;;;;;;;;;;;;;;20.86;52.43;100467.09;2105656;28;3918;-28
2021/05/23 02:42:32;;;;;;;;;;;;;;;20.86;52.50;100472.78;2105418;28;3869;-31
2021/05/23 02:43:33;;;;;;;;;;;;;;;20.86;52.41;100472.78;2106619;28;3982;-28
2021/05/23 02:44:35;;;;;;;;;;;;;;;20.86;52.51;100475.63;2103709;28;3861;-34
2021/05/23 02:45:36;;;;;;;;;;;;;;;20.86;52.42;100478.47;2097694;28;4137;-30
2021/05/23 02:46:38;;;;;;;;;;;;;;;20.86;52.35;100481.31;2105499;28;4045;-29
2021/05/23 02:47:39;;;;;;;;;;;;;;;20.86;52.29;100481.31;2105228;28;3868;-27
2021/05/23 02:48:40;;;;;;;;;;;;;;;20.86;52.33;100477.66;2105655;28;4048;-28
2021/05/23 02:49:41;;;;;;;;;;;;;;;20.86;52.32;100477.66;2101435;28;4110;-33
2021/05/23 02:50:43;;;;;;;;;;;;;;;20.86;52.32;100478.47;2104725;28;4033;-29
2021/05/23 02:51:44;;;;;;;;;;;;;;;20.86;52.34;100478.47;2105110;28;4045;-32
2021/05/23 02:52:45;;;;;;;;;;;;;;;20.86;52.31;100478.47;2105557;28;4081;-27
2021/05/23 02:53:47;;;;;;;;;;;;;;;20.86;52.33;100477.66;2105768;28;4110;-35
2021/05/23 02:54:49;;;;;;;;;;;;;;;20.86;52.33;100477.66;2104427;28;4157;-31
2021/05/23 02:55:51;;;;;;;;;;;;;;;20.85;52.33;100479.66;2105941;28;4241;-39
2021/05/23 02:56:52;;;;;;;;;;;;;;;20.86;52.25;100478.47;2104897;28;4065;-28
2021/05/23 02:57:53;;;;;;;;;;;;;;;20.86;52.29;100477.66;2106033;28;3914;-30
2021/05/23 02:58:54;;;;;;;;;;;;;;;20.86;52.40;100472.78;2105229;28;3894;-29
2021/05/23 02:59:55;;;;;;;;;;;;;;;20.87;52.23;100482.16;2104197;28;4015;-28
2021/05/23 03:00:57;;;;;;;;;;;;;;;20.86;52.37;100472.78;2104782;28;4078;-29
2021/05/23 03:01:58;;;;;;;;;;;;;;;20.86;52.34;100475.63;2105983;28;4044;-34
2021/05/23 03:02:59;;;;;;;;;;;;;;;20.86;52.25;100475.63;2104780;28;4074;-28
2021/05/23 03:04:01;;;;;;;;;;;;;;;20.85;52.36;100471.13;2105567;28;4054;-30
2021/05/23 03:05:02;;;;;;;;;;;;;;;20.86;52.22;100478.47;2105375;28;3951;-28
2021/05/23 03:06:03;;;;;;;;;;;;;;;20.86;52.36;100477.66;2105992;28;4030;-31
2021/05/23 03:07:04;;;;;;;;;;;;;;;20.86;52.22;100472.78;2105730;28;3894;-28
2021/05/23 03:08:06;;;;;;;;;;;;;;;20.86;52.25;100472.78;2105298;28;4042;-28
2021/05/23 03:09:07;;;;;;;;;;;;;;;20.86;52.12;100474.81;2104850;28;4116;-28
2021/05/23 03:10:08;;;;;;;;;;;;;;;20.86;52.17;100480.50;2105408;28;4027;-28
2021/05/23 03:11:09;;;;;;;;;;;;;;;20.86;52.12;100475.63;2105346;28;3841;-31
2021/05/23 03:12:10;;;;;;;;;;;;;;;20.87;52.30;100480.16;2105691;28;4073;-28
2021/05/23 03:13:12;;;;;;;;;;;;;;;20.86;52.25;100478.47;2105316;28;3895;-26
2021/05/23 03:14:13;;;;;;;;;;;;;;;20.86;52.25;100472.78;2104702;28;3845;-30
2021/05/23 03:15:14;;;;;;;;;;;;;;;20.86;52.30;100475.63;2105279;28;3854;-27
2021/05/23 03:16:15;;;;;;;;;;;;;;;20.87;52.32;100483.00;2105117;28;3827;-31
2021/05/23 03:17:16;;;;;;;;;;;;;;;20.88;52.27;100480.97;2104091;28;4140;-28
2021/05/23 03:18:18;;;;;;;;;;;;;;;20.87;52.38;100471.63;2105292;28;3989;-27
2021/05/23 03:19:19;;;;;;;;;;;;;;;20.87;52.21;100471.63;2103728;28;4042;-34
2021/05/23 03:20:20;;;;;;;;;;;;;;;20.87;52.30;100480.16;2104871;28;4085;-29
2021/05/23 03:21:21;;;;;;;;;;;;;;;20.88;52.37;100469.59;2105161;28;4013;-29
2021/05/23 03:22:23;;;;;;;;;;;;;;;20.88;52.49;100473.25;2104949;28;3867;-26
2021/05/23 03:23:24;;;;;;;;;;;;;;;20.89;52.42;100474.06;2106075;28;3975;-31
2021/05/23 03:24:25;;;;;;;;;;;;;;;20.88;52.46;100472.44;2103732;28;4113;-28
2021/05/23 03:25:26;;;;;;;;;;;;;;;20.88;52.38;100473.25;2105248;28;3975;-29
2021/05/23 03:26:28;;;;;;;;;;;;;;;20.89;52.63;100476.91;2104230;28;3978;-25
2021/05/23 03:27:29;;;;;;;;;;;;;;;20.89;52.46;100477.75;2105746;28;4073;-30
2021/05/23 03:28:31;;;;;;;;;;;;;;;20.89;52.58;100483.44;2098297;28;3872;-27
2021/05/23 03:29:32;;;;;;;;;;;;;;;20.89;52.67;100476.91;2103407;28;3854;-29
2021/05/23 03:30:33;;;;;;;;;;;;;;;20.90;52.54;100489.97;2105913;28;3876;-28
2021/05/23 03:31:35;;;;;;;;;;;;;;;20.90;52.56;100484.28;2105400;28;3859;-26
2021/05/23 03:32:36;;;;;;;;;;;;;;;20.89;52.58;100486.28;2104478;28;4080;-27
2021/05/23 03:33:37;;;;;;;;;;;;;;;20.90;52.59;100487.94;2104224;28;3914;-39
2021/05/23 03:34:38;;;;;;;;;;;;;;;20.90;52.83;100487.13;2104358;28;3893;-28
2021/05/23 03:35:39;;;;;;;;;;;;;;;20.90;52.85;100484.28;2104662;28;3834;-26
2021/05/23 03:36:41;;;;;;;;;;;;;;;20.90;52.83;100482.25;2104120;28;3903;-32
2021/05/23 03:37:42;;;;;;;;;;;;;;;20.90;52.89;100485.09;2103676;28;4168;-27
2021/05/23 03:38:43;;;;;;;;;;;;;;;20.91;52.80;100497.31;2103459;28;3891;-28
2021/05/23 03:39:44;;;;;;;;;;;;;;;20.90;52.91;100485.09;2105278;28;4078;-27
2021/05/23 03:40:49;;;;;;;;;;;;;;;20.91;53.00;100489.59;2105558;28;3853;-30
2021/05/23 03:41:50;;;;;;;;;;;;;;;20.91;52.91;100483.91;2104544;28;3990;-28
2021/05/23 03:42:52;;;;;;;;;;;;;;;20.91;52.96;100486.75;2105959;28;4060;-28
2021/05/23 03:43:53;;;;;;;;;;;;;;;20.92;53.02;100487.56;2105596;28;4037;-31
2021/05/23 03:44:54;;;;;;;;;;;;;;;20.92;52.98;100481.88;2103434;28;3862;-28
2021/05/23 03:45:55;;;;;;;;;;;;;;;20.91;53.09;100486.75;2104679;28;3875;-28
2021/05/23 03:46:56;;;;;;;;;;;;;;;20.93;53.01;100491.28;2104227;28;4123;-28
2021/05/23 03:47:58;;;;;;;;;;;;;;;20.93;52.93;100491.28;2104595;28;4052;-31
2021/05/23 03:48:59;;;;;;;;;;;;;;;20.92;53.07;100487.56;2103996;28;3850;-27
2021/05/23 03:50:00;;;;;;;;;;;;;;;20.91;53.02;100481.06;2105170;28;4738;-28
2021/05/23 03:51:01;;;;;;;;;;;;;;;20.93;53.07;100488.41;2105324;28;3832;-27
2021/05/23 03:52:02;;;;;;;;;;;;;;;20.92;53.06;100481.88;2104693;28;3874;-34
2021/05/23 03:53:04;;;;;;;;;;;;;;;20.92;53.11;100487.56;2105362;28;4044;-28
2021/05/23 03:54:07;;;;;;;;;;;;;;;20.93;53.12;100496.97;2105268;28;4029;-26
2021/05/23 03:55:08;;;;;;;;;;;;;;;20.93;53.24;100486.41;2105355;28;4058;-31
2021/05/23 03:56:09;;;;;;;;;;;;;;;20.94;53.12;100490.88;2105380;28;4082;-30
2021/05/23 03:57:10;;;;;;;;;;;;;;;20.94;53.07;100492.91;2104988;28;4012;-28
2021/05/23 03:58:12;;;;;;;;;;;;;;;20.94;53.20;100499.41;2106189;28;3869;-29
2021/05/23 03:59:13;;;;;;;;;;;;;;;20.94;53.25;100495.75;2105222;28;4006;-28
2021/05/23 04:00:15;;;;;;;;;;;;;;;20.95;53.34;100503.09;2104306;28;4247;-29
2021/05/23 04:01:16;;;;;;;;;;;;;;;20.95;53.30;100500.25;2104557;28;3865;-28
2021/05/23 04:02:17;;;;;;;;;;;;;;;20.94;53.37;100495.75;2105213;28;4012;-28
2021/05/23 04:03:21;;;;;;;;;;;;;;;20.95;53.29;100501.09;2104555;28;3821;-37
2021/05/23 04:04:23;;;;;;;;;;;;;;;20.95;53.45;100500.25;2105801;28;4000;-36
2021/05/23 04:05:24;;;;;;;;;;;;;;;20.95;53.35;100494.56;2103786;28;3963;-29
2021/05/23 04:06:26;;;;;;;;;;;;;;;20.95;53.41;100497.41;2105692;28;4059;-33
2021/05/23 04:07:27;;;;;;;;;;;;;;;20.94;53.37;100498.59;2105148;28;4919;-41
2021/05/23 04:08:29;;;;;;;;;;;;;;;20.95;53.40;100494.56;2104968;28;3945;-26
2021/05/23 04:09:30;;;;;;;;;;;;;;;20.95;53.31;100494.56;2105546;28;4060;-32
2021/05/23 04:10:41;;;;;;;;;;;;;;;20.95;53.50;100505.94;2096033;28;4108;-28
2021/05/23 04:11:45;;;;;;;;;;;;;;;20.95;53.38;100503.94;2105077;28;3925;-27
2021/05/23 04:12:49;;;;;;;;;;;;;;;20.95;53.46;100512.47;2105157;28;4038;-28
2021/05/23 04:13:51;;;;;;;;;;;;;;;20.95;53.40;100503.94;2105337;28;4054;-28
2021/05/23 04:14:52;;;;;;;;;;;;;;;20.95;53.46;100512.47;2104523;28;3955;-28
2021/05/23 04:15:53;;;;;;;;;;;;;;;20.95;53.53;100509.63;2103991;28;4093;-29
2021/05/23 04:16:54;;;;;;;;;;;;;;;20.96;53.53;100513.28;2104478;28;3898;-28
2021/05/23 04:17:56;;;;;;;;;;;;;;;20.96;53.62;100516.13;2104901;28;4030;-29
2021/05/23 04:18:57;;;;;;;;;;;;;;;20.97;53.71;100518.59;2105579;28;4092;-28
2021/05/23 04:19:58;;;;;;;;;;;;;;;20.97;53.66;100523.47;2103957;28;3864;-33
2021/05/23 04:21:00;;;;;;;;;;;;;;;20.97;53.52;100523.47;2105405;28;3868;-32
2021/05/23 04:22:01;;;;;;;;;;;;;;;20.97;53.66;100529.16;2105818;28;4049;-27
2021/05/23 04:23:02;;;;;;;;;;;;;;;20.97;53.73;100527.13;2104121;28;4065;-29
2021/05/23 04:24:04;;;;;;;;;;;;;;;20.96;53.60;100522.66;2105758;28;4005;-28
2021/05/23 04:25:06;;;;;;;;;;;;;;;20.97;53.71;100523.47;2103038;28;4073;-31
2021/05/23 04:26:07;;;;;;;;;;;;;;;20.96;53.81;100525.50;2104565;28;4061;-29
2021/05/23 04:27:08;;;;;;;;;;;;;;;20.93;53.87;100533.91;2105222;28;4035;-31
2021/05/23 04:28:10;;;;;;;;;;;;;;;20.94;53.77;100542.06;2104985;28;4013;-28
2021/05/23 04:29:11;;;;;;;;;;;;;;;20.94;53.78;100529.88;2103805;28;4049;-30
2021/05/23 04:30:12;;;;;;;;;;;;;;;20.93;53.79;100540.44;2104370;28;4014;-28
2021/05/23 04:31:13;;;;;;;;;;;;;;;20.94;53.74;100544.91;2104721;28;3973;-31
2021/05/23 04:32:15;;;;;;;;;;;;;;;20.94;53.62;100542.06;2105015;28;4078;-32
2021/05/23 04:33:16;;;;;;;;;;;;;;;20.95;53.52;100537.22;2105093;28;4029;-28
2021/05/23 04:34:17;;;;;;;;;;;;;;;20.94;53.63;100541.25;2104627;28;3981;-33
2021/05/23 04:35:18;;;;;;;;;;;;;;;20.95;53.82;100542.91;2104193;28;4034;-36
2021/05/23 04:36:19;;;;;;;;;;;;;;;20.95;53.76;100542.91;2105066;28;4050;-34
2021/05/23 04:37:21;;;;;;;;;;;;;;;20.95;53.87;100540.91;2105160;28;4053;-31
2021/05/23 04:38:22;;;;;;;;;;;;;;;20.94;53.49;100542.06;2104947;28;3987;-28
2021/05/23 04:39:25;;;;;;;;;;;;;;;20.96;53.60;100547.41;2104476;28;4001;-36
2021/05/23 04:40:26;;;;;;;;;;;;;;;20.96;53.62;100544.56;2104572;28;3984;-30
2021/05/23 04:41:27;;;;;;;;;;;;;;;20.96;53.69;100551.09;2104163;28;4798;-37
2021/05/23 04:42:28;;;;;;;;;;;;;;;20.97;53.61;100551.91;2105268;28;4030;-29
2021/05/23 04:43:50;;;;;;;;;;;;;;;20.96;53.59;100544.56;2103983;28;3878;-29
2021/05/23 04:44:51;;;;;;;;;;;;;;;20.97;53.60;100549.06;2103604;28;4063;-28
2021/05/23 04:45:52;;;;;;;;;;;;;;;20.96;53.57;100550.25;2104981;28;3984;-30
2021/05/23 04:46:54;;;;;;;;;;;;;;;20.96;53.59;100553.94;2104977;28;4052;-32
2021/05/23 04:47:55;;;;;;;;;;;;;;;20.97;53.65;100557.59;2104900;28;3923;-29
2021/05/23 04:48:56;;;;;;;;;;;;;;;20.96;53.71;100553.09;2104255;28;4021;-30
2021/05/23 04:49:59;;;;;;;;;;;;;;;20.97;53.79;100552.72;2104500;28;4037;-32
2021/05/23 04:51:00;;;;;;;;;;;;;;;20.97;53.73;100552.72;2104367;28;4033;-31
2021/05/23 04:52:01;;;;;;;;;;;;;;;20.97;53.82;100549.06;2105275;28;3843;-28
2021/05/23 04:53:02;;;;;;;;;;;;;;;20.98;53.80;100553.56;2104509;28;4052;-31
2021/05/23 04:54:04;;;;;;;;;;;;;;;20.98;53.72;100550.72;2104387;28;4126;-31
2021/05/23 04:55:05;;;;;;;;;;;;;;;20.99;53.95;100550.38;2105031;28;4051;-31
2021/05/23 04:56:06;;;;;;;;;;;;;;;20.99;53.81;100553.19;2104166;28;4014;-28
2021/05/23 04:57:07;;;;;;;;;;;;;;;20.99;53.83;100550.38;2105058;28;4026;-28
2021/05/23 04:58:09;;;;;;;;;;;;;;;21.00;53.97;100551.19;2105035;28;4080;-34
2021/05/23 04:59:10;;;;;;;;;;;;;;;20.99;53.87;100553.19;2105468;28;3948;-28
2021/05/23 05:00:11;;;;;;;;;;;;;;;21.00;53.79;100556.88;2103092;28;4029;-34
2021/05/23 05:01:12;;;;;;;;;;;;;;;21.00;53.99;100551.19;2104834;28;3944;-30
2021/05/23 05:02:13;;;;;;;;;;;;;;;20.99;53.86;100556.06;2104945;28;4064;-32
2021/05/23 05:03:15;;;;;;;;;;;;;;;21.00;53.80;100556.88;2104316;28;4005;-31
2021/05/23 05:04:16;;;;;;;;;;;;;;;21.00;53.79;100565.41;2104403;28;4033;-29
2021/05/23 05:05:19;;;;;;;;;;;;;;;20.98;53.85;100557.25;2103558;28;3992;-28
2021/05/23 05:06:20;;;;;;;;;;;;;;;20.99;53.87;100563.75;2103593;28;4008;-28
2021/05/23 05:07:21;;;;;;;;;;;;;;;21.00;53.96;100571.09;2105014;28;3978;-30
2021/05/23 05:08:22;;;;;;;;;;;;;;;21.00;53.94;100571.09;2104411;28;3863;-29
2021/05/23 05:09:24;;;;;;;;;;;;;;;21.00;53.95;100574.75;2105076;28;4057;-29
2021/05/23 05:10:25;;;;;;;;;;;;;;;21.00;54.01;100574.75;2103246;28;3947;-31
2021/05/23 05:11:26;;;;;;;;;;;;;;;21.00;54.05;100580.44;2105244;28;3893;-28
2021/05/23 05:12:27;;;;;;;;;;;;;;;21.01;54.00;100576.44;2105216;28;4714;-32
2021/05/23 05:13:28;;;;;;;;;;;;;;;21.02;53.91;100582.94;2104676;28;3879;-31
2021/05/23 05:14:30;;;;;;;;;;;;;;;21.02;54.16;100578.06;2104956;28;4035;-28
2021/05/23 05:15:31;;;;;;;;;;;;;;;21.02;54.22;100577.25;2104922;28;4052;-29
2021/05/23 05:16:32;;;;;;;;;;;;;;;21.02;54.28;100580.09;2104361;28;4074;-31
2021/05/23 05:17:33;;;;;;;;;;;;;;;21.02;54.22;100583.75;2103507;28;4040;-29
2021/05/23 05:18:35;;;;;;;;;;;;;;;21.02;54.26;100578.06;2104242;28;4083;-30
2021/05/23 05:19:36;;;;;;;;;;;;;;;21.03;54.22;100588.25;2104499;28;4139;-29
2021/05/23 05:20:38;;;;;;;;;;;;;;;21.02;54.18;100582.94;2103458;28;4153;-33